createdAt,value
2018-05-07T00:00:25.867Z,17.60
2018-05-07T00:02:54.628Z,17.60
2018-05-07T00:05:22.959Z,17.50
2018-05-07T00:07:51.942Z,17.50
2018-05-07T00:10:19.809Z,17.50
2018-05-07T00:12:47.405Z,17.40
2018-05-07T00:15:15.004Z,17.40
2018-05-07T00:17:44.285Z,17.20
2018-05-07T00:20:11.865Z,17.20
2018-05-07T00:22:39.425Z,17.20
2018-05-07T00:25:08.345Z,17.20
2018-05-07T00:27:35.985Z,17.10
2018-05-07T00:30:04.996Z,17.10
2018-05-07T00:32:33.341Z,17.00
2018-05-07T00:35:00.922Z,17.00
2018-05-07T00:37:28.489Z,16.90
2018-05-07T00:39:56.082Z,16.90
2018-05-07T00:42:24.404Z,16.90
2018-05-07T00:44:51.988Z,16.80
2018-05-07T00:47:19.566Z,16.70
2018-05-07T00:49:47.230Z,16.70
2018-05-07T00:52:14.802Z,16.70
2018-05-07T00:55:03.979Z,16.60
2018-05-07T00:57:32.316Z,16.50
2018-05-07T00:59:59.896Z,16.50
2018-05-07T01:02:27.459Z,16.50
2018-05-07T01:04:55.061Z,16.50
2018-05-07T01:07:23.420Z,16.40
2018-05-07T01:09:51.003Z,16.30
2018-05-07T01:12:19.375Z,16.30
2018-05-07T01:14:47.746Z,16.30
2018-05-07T01:17:15.341Z,16.30
2018-05-07T01:19:43.697Z,16.30
2018-05-07T01:22:11.283Z,16.30
2018-05-07T01:24:39.610Z,16.30
2018-05-07T01:27:07.206Z,16.20
2018-05-07T01:29:34.800Z,16.30
2018-05-07T01:32:02.407Z,16.30
2018-05-07T01:34:29.974Z,16.30
2018-05-07T01:36:57.545Z,16.30
2018-05-07T01:39:25.112Z,16.30
2018-05-07T01:41:52.685Z,16.30
2018-05-07T01:44:20.261Z,16.30
2018-05-07T01:46:47.835Z,16.30
2018-05-07T01:49:15.389Z,16.30
2018-05-07T01:51:42.961Z,16.30
2018-05-07T01:54:10.556Z,16.30
2018-05-07T01:56:38.127Z,16.40
2018-05-07T01:59:05.720Z,16.30
2018-05-07T02:01:33.307Z,16.30
2018-05-07T02:04:00.900Z,16.30
2018-05-07T02:06:29.234Z,16.20
2018-05-07T02:08:56.821Z,16.20
2018-05-07T02:11:24.372Z,16.10
2018-05-07T02:13:51.962Z,16.10
2018-05-07T02:16:19.550Z,16.00
2018-05-07T02:18:47.914Z,15.90
2018-05-07T02:21:15.488Z,15.90
2018-05-07T02:23:43.823Z,15.90
2018-05-07T02:26:11.391Z,15.80
2018-05-07T02:28:38.963Z,15.80
2018-05-07T02:31:06.539Z,15.80
2018-05-07T02:33:34.122Z,15.80
2018-05-07T02:36:02.483Z,15.70
2018-05-07T02:38:30.123Z,15.70
2018-05-07T02:40:57.729Z,15.70
2018-05-07T02:43:26.128Z,15.60
2018-05-07T02:45:54.460Z,15.60
2018-05-07T02:48:22.026Z,15.60
2018-05-07T02:50:49.619Z,15.60
2018-05-07T02:53:17.196Z,15.60
2018-05-07T02:55:45.563Z,15.50
2018-05-07T02:58:13.148Z,15.40
2018-05-07T03:00:41.485Z,15.40
2018-05-07T03:03:09.080Z,15.40
2018-05-07T03:05:36.664Z,15.40
2018-05-07T03:08:05.516Z,15.20
2018-05-07T03:10:33.897Z,15.20
2018-05-07T03:13:01.486Z,15.20
2018-05-07T03:15:29.072Z,15.20
2018-05-07T03:17:57.150Z,15.10
2018-05-07T03:20:25.736Z,15.10
2018-05-07T03:22:54.071Z,15.00
2018-05-07T03:25:21.650Z,15.00
2018-05-07T03:27:49.215Z,15.00
2018-05-07T03:30:17.576Z,14.90
2018-05-07T03:32:45.139Z,14.90
2018-05-07T03:35:12.711Z,14.90
2018-05-07T03:37:40.286Z,14.80
2018-05-07T03:40:07.869Z,14.80
2018-05-07T03:42:35.435Z,14.70
2018-05-07T03:45:03.000Z,14.70
2018-05-07T03:47:30.576Z,14.70
2018-05-07T03:49:58.914Z,14.60
2018-05-07T03:52:26.494Z,14.60
2018-05-07T03:54:54.071Z,14.60
2018-05-07T03:57:21.634Z,14.60
2018-05-07T03:59:49.218Z,14.60
2018-05-07T04:02:17.557Z,14.50
2018-05-07T04:04:45.117Z,14.50
2018-05-07T04:07:12.679Z,14.50
2018-05-07T04:09:40.260Z,14.50
2018-05-07T04:12:08.710Z,14.50
2018-05-07T04:14:36.285Z,14.50
2018-05-07T04:17:25.487Z,14.40
2018-05-07T04:20:04.869Z,14.40
2018-05-07T04:22:44.330Z,14.40
2018-05-07T04:25:11.903Z,14.30
2018-05-07T04:27:40.262Z,14.30
2018-05-07T04:30:07.829Z,14.30
2018-05-07T04:32:35.410Z,14.30
2018-05-07T04:35:02.996Z,14.30
2018-05-07T04:37:30.588Z,14.30
2018-05-07T04:39:58.187Z,14.30
2018-05-07T04:42:25.754Z,14.30
2018-05-07T04:44:53.310Z,14.30
2018-05-07T04:47:20.897Z,14.30
2018-05-07T04:49:48.879Z,14.30
2018-05-07T04:52:16.468Z,14.30
2018-05-07T04:54:44.047Z,14.40
2018-05-07T04:57:12.407Z,14.40
2018-05-07T04:59:40.658Z,14.40
2018-05-07T05:02:09.072Z,14.50
2018-05-07T05:04:36.714Z,14.50
2018-05-07T05:07:04.336Z,14.50
2018-05-07T05:09:31.934Z,14.60
2018-05-07T05:11:59.504Z,14.70
2018-05-07T05:14:27.650Z,14.70
2018-05-07T05:16:55.220Z,14.80
2018-05-07T05:19:22.798Z,14.90
2018-05-07T05:21:50.380Z,14.90
2018-05-07T05:24:17.984Z,14.90
2018-05-07T05:26:45.557Z,15.00
2018-05-07T05:29:14.003Z,15.30
2018-05-07T05:31:41.595Z,15.30
2018-05-07T05:34:09.157Z,15.40
2018-05-07T05:36:36.735Z,15.50
2018-05-07T05:39:06.787Z,15.70
2018-05-07T05:41:34.361Z,15.70
2018-05-07T05:44:01.937Z,15.80
2018-05-07T05:46:29.554Z,16.00
2018-05-07T05:48:57.886Z,16.10
2018-05-07T05:51:25.464Z,16.10
2018-05-07T05:53:53.044Z,16.20
2018-05-07T05:56:20.684Z,16.30
2018-05-07T05:58:48.852Z,16.40
2018-05-07T06:01:16.434Z,16.40
2018-05-07T06:03:44.704Z,16.50
2018-05-07T06:06:12.975Z,16.60
2018-05-07T06:08:40.787Z,16.60
2018-05-07T06:11:08.371Z,16.70
2018-05-07T06:13:36.771Z,16.90
2018-05-07T06:16:04.421Z,16.90
2018-05-07T06:18:32.007Z,17.00
2018-05-07T06:20:59.626Z,17.10
2018-05-07T06:23:27.233Z,17.20
2018-05-07T06:25:54.822Z,17.20
2018-05-07T06:28:22.400Z,17.30
2018-05-07T06:30:49.980Z,17.40
2018-05-07T06:33:18.002Z,17.50
2018-05-07T06:35:45.616Z,17.60
2018-05-07T06:38:13.826Z,17.60
2018-05-07T06:40:42.140Z,17.80
2018-05-07T06:43:09.726Z,17.80
2018-05-07T06:45:37.368Z,17.90
2018-05-07T06:48:05.095Z,17.90
2018-05-07T06:50:32.681Z,17.90
2018-05-07T06:53:00.274Z,18.10
2018-05-07T06:55:27.860Z,18.20
2018-05-07T06:57:55.453Z,18.30
2018-05-07T07:00:23.141Z,18.40
2018-05-07T07:02:50.893Z,18.50
2018-05-07T07:05:18.362Z,18.60
2018-05-07T07:07:45.962Z,18.70
2018-05-07T07:10:13.578Z,18.70
2018-05-07T07:12:41.205Z,18.90
2018-05-07T07:15:08.783Z,18.90
2018-05-07T07:17:36.362Z,19.00
2018-05-07T07:20:03.958Z,19.10
2018-05-07T07:22:32.294Z,19.20
2018-05-07T07:24:59.916Z,19.20
2018-05-07T07:27:27.521Z,19.30
2018-05-07T07:29:55.133Z,19.40
2018-05-07T07:32:23.489Z,19.50
2018-05-07T07:34:51.098Z,19.50
2018-05-07T07:37:18.749Z,19.60
2018-05-07T07:39:46.276Z,19.60
2018-05-07T07:42:13.893Z,19.70
2018-05-07T07:44:41.487Z,19.80
2018-05-07T07:47:09.080Z,19.90
2018-05-07T07:49:36.648Z,19.90
2018-05-07T07:52:04.285Z,20.10
2018-05-07T07:54:31.862Z,20.00
2018-05-07T07:56:59.434Z,20.10
2018-05-07T07:59:27.044Z,20.00
2018-05-07T08:01:55.426Z,20.10
2018-05-07T08:04:23.056Z,20.10
2018-05-07T08:06:50.676Z,20.10
2018-05-07T08:09:18.295Z,20.10
2018-05-07T08:11:45.912Z,20.20
2018-05-07T08:14:13.508Z,20.30
2018-05-07T08:16:42.277Z,20.40
2018-05-07T08:19:09.872Z,20.50
2018-05-07T08:21:37.459Z,20.60
2018-05-07T08:24:05.056Z,20.70
2018-05-07T08:26:32.637Z,20.70
2018-05-07T08:29:00.219Z,20.80
2018-05-07T08:31:28.613Z,20.90
2018-05-07T08:33:56.191Z,21.00
2018-05-07T08:36:24.605Z,21.30
2018-05-07T08:38:53.642Z,21.30
2018-05-07T08:41:21.228Z,21.50
2018-05-07T08:43:48.834Z,21.50
2018-05-07T08:46:17.740Z,21.60
2018-05-07T08:48:45.327Z,21.70
2018-05-07T08:51:12.930Z,21.90
2018-05-07T08:53:41.313Z,22.10
2018-05-07T08:56:08.895Z,22.10
2018-05-07T08:58:37.277Z,22.20
2018-05-07T09:01:04.855Z,22.10
2018-05-07T09:03:32.461Z,22.20
2018-05-07T09:06:01.996Z,22.30
2018-05-07T09:08:29.603Z,22.40
2018-05-07T09:10:57.221Z,22.40
2018-05-07T09:13:25.613Z,22.60
2018-05-07T09:15:53.280Z,22.70
2018-05-07T09:18:20.866Z,22.70
2018-05-07T09:20:50.290Z,23.00
2018-05-07T09:23:17.874Z,23.00
2018-05-07T09:25:45.472Z,23.00
2018-05-07T09:28:13.073Z,23.20
2018-05-07T09:30:40.722Z,23.20
2018-05-07T09:33:09.165Z,23.40
2018-05-07T09:35:36.757Z,23.40
2018-05-07T09:38:12.905Z,23.60
2018-05-07T09:40:40.621Z,23.70
2018-05-07T09:43:08.250Z,23.90
2018-05-07T09:45:36.695Z,24.00
2018-05-07T09:48:04.285Z,24.00
2018-05-07T09:50:31.863Z,24.10
2018-05-07T09:52:59.493Z,24.20
2018-05-07T09:55:27.083Z,24.30
2018-05-07T09:58:02.698Z,24.30
2018-05-07T10:00:34.705Z,24.30
2018-05-07T10:03:02.337Z,24.50
2018-05-07T10:05:29.946Z,24.70
2018-05-07T10:07:57.570Z,24.80
2018-05-07T10:10:25.189Z,25.00
2018-05-07T10:12:53.550Z,25.00
2018-05-07T10:15:21.160Z,25.00
2018-05-07T10:17:48.770Z,25.20
2018-05-07T10:20:16.404Z,25.20
2018-05-07T10:22:44.068Z,25.20
2018-05-07T10:25:11.658Z,25.50
2018-05-07T10:27:39.254Z,25.60
2018-05-07T10:30:06.865Z,25.70
2018-05-07T10:32:34.485Z,25.60
2018-05-07T10:35:02.116Z,25.70
2018-05-07T10:37:29.729Z,25.80
2018-05-07T10:39:57.339Z,25.80
2018-05-07T10:42:24.929Z,26.00
2018-05-07T10:44:52.517Z,26.10
2018-05-07T10:47:20.863Z,26.30
2018-05-07T10:49:48.445Z,26.30
2018-05-07T10:52:16.047Z,26.50
2018-05-07T10:54:43.619Z,26.60
2018-05-07T10:57:11.233Z,26.60
2018-05-07T10:59:38.793Z,26.70
2018-05-07T11:02:06.354Z,26.90
2018-05-07T11:04:33.930Z,26.90
2018-05-07T11:07:01.497Z,27.10
2018-05-07T11:09:29.078Z,27.20
2018-05-07T11:11:57.438Z,26.70
2018-05-07T11:14:25.034Z,26.70
2018-05-07T11:16:53.398Z,26.90
2018-05-07T11:19:20.954Z,26.90
2018-05-07T11:21:48.543Z,26.90
2018-05-07T11:24:16.960Z,27.30
2018-05-07T11:26:44.525Z,27.20
2018-05-07T11:29:12.123Z,27.30
2018-05-07T11:31:39.711Z,27.10
2018-05-07T11:34:07.295Z,27.00
2018-05-07T11:36:34.888Z,27.10
2018-05-07T11:39:02.524Z,27.30
2018-05-07T11:41:30.113Z,27.40
2018-05-07T11:43:57.692Z,27.50
2018-05-07T11:46:25.333Z,27.50
2018-05-07T11:48:52.933Z,27.50
2018-05-07T11:51:20.533Z,27.50
2018-05-07T11:53:48.924Z,27.70
2018-05-07T11:56:16.530Z,27.70
2018-05-07T11:58:44.138Z,27.30
2018-05-07T12:01:12.503Z,27.60
2018-05-07T12:03:40.885Z,27.60
2018-05-07T12:06:08.437Z,27.50
2018-05-07T12:08:36.039Z,27.70
2018-05-07T12:11:04.395Z,28.00
2018-05-07T12:13:32.869Z,28.00
2018-05-07T12:16:00.515Z,28.10
2018-05-07T12:18:28.843Z,28.20
2018-05-07T12:20:56.500Z,28.10
2018-05-07T12:23:24.058Z,28.20
2018-05-07T12:25:51.620Z,28.40
2018-05-07T12:28:19.184Z,28.50
2018-05-07T12:30:46.761Z,28.60
2018-05-07T12:33:14.340Z,28.60
2018-05-07T12:35:42.723Z,28.90
2018-05-07T12:38:11.072Z,28.90
2018-05-07T12:40:38.646Z,28.90
2018-05-07T12:43:06.212Z,28.70
2018-05-07T12:45:33.891Z,28.60
2018-05-07T12:48:01.523Z,28.60
2018-05-07T12:50:29.115Z,28.80
2018-05-07T12:52:56.745Z,28.90
2018-05-07T12:55:24.353Z,28.90
2018-05-07T12:57:51.974Z,28.90
2018-05-07T13:00:19.531Z,29.10
2018-05-07T13:02:47.096Z,29.10
2018-05-07T13:05:15.484Z,28.90
2018-05-07T13:07:43.089Z,28.90
2018-05-07T13:10:10.680Z,29.00
2018-05-07T13:12:39.716Z,29.10
2018-05-07T13:15:07.397Z,29.20
2018-05-07T13:17:35.785Z,29.20
2018-05-07T13:20:03.394Z,29.20
2018-05-07T13:22:31.516Z,29.30
2018-05-07T13:24:59.091Z,29.30
2018-05-07T13:27:26.667Z,29.30
2018-05-07T13:29:54.338Z,29.30
2018-05-07T13:32:21.983Z,29.40
2018-05-07T13:34:49.550Z,29.30
2018-05-07T13:37:17.153Z,29.30
2018-05-07T13:39:45.525Z,29.30
2018-05-07T13:42:13.112Z,29.30
2018-05-07T13:44:40.683Z,29.60
2018-05-07T13:47:08.295Z,29.30
2018-05-07T13:49:35.867Z,29.30
2018-05-07T13:52:03.428Z,29.40
2018-05-07T13:54:31.017Z,29.60
2018-05-07T13:56:59.479Z,29.70
2018-05-07T13:59:26.964Z,29.70
2018-05-07T14:01:55.328Z,29.70
2018-05-07T14:04:22.900Z,29.60
2018-05-07T14:06:50.465Z,29.70
2018-05-07T14:09:18.069Z,29.70
2018-05-07T14:11:45.637Z,30.00
2018-05-07T14:14:13.227Z,29.90
2018-05-07T14:16:40.921Z,29.90
2018-05-07T14:19:08.464Z,29.50
2018-05-07T14:21:36.088Z,29.50
2018-05-07T14:24:03.718Z,29.50
2018-05-07T14:26:31.285Z,29.40
2018-05-07T14:28:59.667Z,29.30
2018-05-07T14:31:27.232Z,29.30
2018-05-07T14:33:54.799Z,29.30
2018-05-07T14:36:22.390Z,29.00
2018-05-07T14:38:50.114Z,29.10
2018-05-07T14:41:18.394Z,29.40
2018-05-07T14:43:45.986Z,29.40
2018-05-07T14:46:14.248Z,29.50
2018-05-07T14:48:41.844Z,29.30
2018-05-07T14:51:09.436Z,29.10
2018-05-07T14:53:37.788Z,28.70
2018-05-07T14:56:05.416Z,28.70
2018-05-07T14:58:33.019Z,28.80
2018-05-07T15:01:01.361Z,28.80
2018-05-07T15:03:28.943Z,28.80
2018-05-07T15:05:56.575Z,28.90
2018-05-07T15:08:24.129Z,29.10
2018-05-07T15:10:51.698Z,29.20
2018-05-07T15:13:19.334Z,29.20
2018-05-07T15:15:46.859Z,29.30
2018-05-07T15:18:14.437Z,29.30
2018-05-07T15:20:42.073Z,29.20
2018-05-07T15:23:09.658Z,29.40
2018-05-07T15:25:37.243Z,29.60
2018-05-07T15:28:05.606Z,29.70
2018-05-07T15:30:33.229Z,29.60
2018-05-07T15:33:00.804Z,29.70
2018-05-07T15:35:28.394Z,29.70
2018-05-07T15:37:56.004Z,29.90
2018-05-07T15:40:23.570Z,30.30
2018-05-07T15:42:51.168Z,30.70
2018-05-07T15:45:18.749Z,31.30
2018-05-07T15:47:46.350Z,31.80
2018-05-07T15:50:14.673Z,32.40
2018-05-07T15:52:42.242Z,32.40
2018-05-07T15:55:09.856Z,32.20
2018-05-07T15:57:38.197Z,31.70
2018-05-07T16:00:05.837Z,31.70
2018-05-07T16:02:33.501Z,32.00
2018-05-07T16:05:01.075Z,32.20
2018-05-07T16:07:28.671Z,32.20
2018-05-07T16:09:56.292Z,31.80
2018-05-07T16:12:23.911Z,31.50
2018-05-07T16:14:51.493Z,31.00
2018-05-07T16:17:19.116Z,30.40
2018-05-07T16:19:46.689Z,29.80
2018-05-07T16:22:14.383Z,29.50
2018-05-07T16:24:41.876Z,29.10
2018-05-07T16:27:09.459Z,28.80
2018-05-07T16:29:37.343Z,28.50
2018-05-07T16:32:04.953Z,28.20
2018-05-07T16:34:33.312Z,27.80
2018-05-07T16:37:00.917Z,27.70
2018-05-07T16:39:28.563Z,27.60
2018-05-07T16:41:56.989Z,27.50
2018-05-07T16:44:25.317Z,27.50
2018-05-07T16:46:52.891Z,27.50
2018-05-07T16:49:20.463Z,27.40
2018-05-07T16:51:49.267Z,27.20
2018-05-07T16:54:16.882Z,27.20
2018-05-07T16:56:44.436Z,27.10
2018-05-07T16:59:12.008Z,27.00
2018-05-07T17:01:39.608Z,26.90
2018-05-07T17:04:07.955Z,26.70
2018-05-07T17:06:35.523Z,26.60
2018-05-07T17:09:03.151Z,26.60
2018-05-07T17:11:30.726Z,26.70
2018-05-07T17:13:59.056Z,26.50
2018-05-07T17:16:26.629Z,26.50
2018-05-07T17:18:54.989Z,26.70
2018-05-07T17:21:22.599Z,26.60
2018-05-07T17:23:50.179Z,26.70
2018-05-07T17:26:18.456Z,26.60
2018-05-07T17:28:46.060Z,26.50
2018-05-07T17:31:13.669Z,26.50
2018-05-07T17:33:42.111Z,26.30
2018-05-07T17:36:09.595Z,26.30
2018-05-07T17:38:37.181Z,26.20
2018-05-07T17:41:04.817Z,26.10
2018-05-07T17:43:33.618Z,26.00
2018-05-07T17:46:13.080Z,25.90
2018-05-07T17:48:52.683Z,26.00
2018-05-07T17:51:20.272Z,25.90
2018-05-07T17:53:48.610Z,25.80
2018-05-07T17:56:16.182Z,25.80
2018-05-07T17:58:43.780Z,25.80
2018-05-07T18:01:12.147Z,25.70
2018-05-07T18:03:39.737Z,25.70
2018-05-07T18:06:07.319Z,25.60
2018-05-07T18:08:34.914Z,25.60
2018-05-07T18:11:02.487Z,25.50
2018-05-07T18:13:30.072Z,25.40
2018-05-07T18:15:57.674Z,25.30
2018-05-07T18:18:25.252Z,25.30
2018-05-07T18:20:53.534Z,25.10
2018-05-07T18:23:21.232Z,25.00
2018-05-07T18:25:48.838Z,24.90
2018-05-07T18:28:17.204Z,24.70
2018-05-07T18:30:45.547Z,24.50
2018-05-07T18:33:13.140Z,24.50
2018-05-07T18:35:40.723Z,24.40
2018-05-07T18:38:09.116Z,24.20
2018-05-07T18:40:36.680Z,24.10
2018-05-07T18:43:05.113Z,23.90
2018-05-07T18:45:32.692Z,23.90
2018-05-07T18:48:00.275Z,23.80
2018-05-07T18:50:28.629Z,23.50
2018-05-07T18:52:56.231Z,23.40
2018-05-07T18:55:24.600Z,23.20
2018-05-07T18:57:52.170Z,23.20
2018-05-07T19:00:19.746Z,23.10
2018-05-07T19:02:48.127Z,22.90
2018-05-07T19:05:15.724Z,22.90
2018-05-07T19:07:43.404Z,22.80
2018-05-07T19:10:11.757Z,22.60
2018-05-07T19:12:39.341Z,22.50
2018-05-07T19:15:07.014Z,22.30
2018-05-07T19:17:34.604Z,22.20
2018-05-07T19:20:02.251Z,22.10
2018-05-07T19:22:29.819Z,22.00
2018-05-07T19:24:57.415Z,22.00
2018-05-07T19:27:25.058Z,21.90
2018-05-07T19:29:52.731Z,21.80
2018-05-07T19:32:20.335Z,21.70
2018-05-07T19:34:49.283Z,21.50
2018-05-07T19:37:16.876Z,21.50
2018-05-07T19:39:44.484Z,21.40
2018-05-07T19:42:12.066Z,21.40
2018-05-07T19:44:39.647Z,21.30
2018-05-07T19:47:07.222Z,21.20
2018-05-07T19:49:34.833Z,21.20
2018-05-07T19:52:02.424Z,21.10
2018-05-07T19:54:30.012Z,21.10
2018-05-07T19:56:57.565Z,21.10
2018-05-07T19:59:25.166Z,21.00
2018-05-07T20:01:52.795Z,20.90
2018-05-07T20:04:20.382Z,20.90
2018-05-07T20:06:48.024Z,20.80
2018-05-07T20:09:15.689Z,20.80
2018-05-07T20:11:43.277Z,20.70
2018-05-07T20:14:10.909Z,20.70
2018-05-07T20:16:38.511Z,20.60
2018-05-07T20:19:06.141Z,20.60
2018-05-07T20:21:33.729Z,20.50
2018-05-07T20:24:01.305Z,20.40
2018-05-07T20:26:28.916Z,20.40
2018-05-07T20:28:56.544Z,20.40
2018-05-07T20:31:24.142Z,20.40
2018-05-07T20:33:52.503Z,20.30
2018-05-07T20:36:20.086Z,20.30
2018-05-07T20:38:48.438Z,20.30
2018-05-07T20:41:16.034Z,20.30
2018-05-07T20:43:44.409Z,20.20
2018-05-07T20:46:12.024Z,20.20
2018-05-07T20:48:39.604Z,20.20
2018-05-07T20:51:07.191Z,20.20
2018-05-07T20:53:34.809Z,20.10
2018-05-07T20:56:02.420Z,20.20
2018-05-07T20:58:30.011Z,20.10
2018-05-07T21:00:57.615Z,20.10
2018-05-07T21:03:25.191Z,20.00
2018-05-07T21:05:52.868Z,20.00
2018-05-07T21:08:20.661Z,20.00
2018-05-07T21:10:49.596Z,19.90
2018-05-07T21:13:17.242Z,19.90
2018-05-07T21:15:44.840Z,19.90
2018-05-07T21:18:12.438Z,19.90
2018-05-07T21:20:40.024Z,19.90
2018-05-07T21:23:08.396Z,19.80
2018-05-07T21:25:36.006Z,19.80
2018-05-07T21:28:04.492Z,19.90
2018-05-07T21:30:32.064Z,19.90
2018-05-07T21:32:59.660Z,19.90
2018-05-07T21:35:27.258Z,19.90
2018-05-07T21:37:54.875Z,19.80
2018-05-07T21:40:22.783Z,19.90
2018-05-07T21:42:50.387Z,19.80
2018-05-07T21:45:18.034Z,19.80
2018-05-07T21:47:46.604Z,19.80
2018-05-07T21:50:14.202Z,19.80
2018-05-07T21:52:41.834Z,19.80
2018-05-07T21:55:09.439Z,19.80
2018-05-07T21:57:37.025Z,19.80
2018-05-07T22:00:04.701Z,19.80
2018-05-07T22:02:32.311Z,19.80
2018-05-07T22:04:59.930Z,19.80
2018-05-07T22:07:27.628Z,19.80
2018-05-07T22:09:56.002Z,19.70
2018-05-07T22:12:23.612Z,19.70
2018-05-07T22:14:51.294Z,19.70
2018-05-07T22:17:18.873Z,19.60
2018-05-07T22:19:46.486Z,19.60
2018-05-07T22:22:14.865Z,19.50
2018-05-07T22:24:43.239Z,19.50
2018-05-07T22:27:11.617Z,19.40
2018-05-07T22:29:39.923Z,19.40
2018-05-07T22:32:08.301Z,19.30
2018-05-07T22:34:36.623Z,19.30
2018-05-07T22:37:04.186Z,19.30
2018-05-07T22:39:31.773Z,19.20
2018-05-07T22:41:59.362Z,19.20
2018-05-07T22:44:26.949Z,19.20
2018-05-07T22:46:54.521Z,19.10
2018-05-07T22:49:22.113Z,19.10
2018-05-07T22:51:50.556Z,19.10
2018-05-07T22:54:18.147Z,19.00
2018-05-07T22:56:46.630Z,19.00
2018-05-07T22:59:14.230Z,18.90
2018-05-07T23:01:41.826Z,18.90
2018-05-07T23:04:10.184Z,18.90
2018-05-07T23:06:37.756Z,18.80
2018-05-07T23:09:05.371Z,18.80
2018-05-07T23:11:32.953Z,18.80
2018-05-07T23:14:00.606Z,18.80
2018-05-07T23:16:28.218Z,18.80
2018-05-07T23:18:55.812Z,18.70
2018-05-07T23:21:24.137Z,18.80
2018-05-07T23:23:51.711Z,18.70
2018-05-07T23:26:19.333Z,18.70
2018-05-07T23:28:46.923Z,18.70
2018-05-07T23:31:14.501Z,18.70
2018-05-07T23:33:42.067Z,18.70
2018-05-07T23:36:09.669Z,18.70
2018-05-07T23:38:38.005Z,18.70
2018-05-07T23:41:05.584Z,18.60
2018-05-07T23:43:34.046Z,18.70
2018-05-07T23:46:01.641Z,18.60
2018-05-07T23:48:29.226Z,18.60
2018-05-07T23:50:56.808Z,18.50
2018-05-07T23:53:25.138Z,18.50
2018-05-07T23:55:53.489Z,18.60
2018-05-07T23:58:21.057Z,18.50
